Terminal Aerodrome Forecast
Issued by NWS Mt. Holly, NJ

Home | Current Version | Previous Version | Text Only | Print | Product List | Glossary On
Versions: 1 2 3 4 5 6 7 8 9 10 11 12 13 14 15 16 17 18 19 20 21 22 23 24 25
000
FTUS41 KPHI 041129
TAFABE
TAF
KABE 041129Z 0412/0512 07005KT P6SM -RA BKN006 OVC080
      TEMPO 0412/0415 5SM BR FEW006 OVC010
     FM041500 07005KT 6SM -RA BR OVC009
      TEMPO 0417/0421 2SM RADZ BR OVC006
     FM042100 05008KT 5SM -DZ BR OVC008=

USA.gov is the U.S. government's official web portal to all federal, state and local government web resources and services.